^^
Station Historical Data
 
Daily Summary for January 17, 2019 Units:  English    Metric   Both
« Previous Day
Next Day »
Daily Weekly Monthly Yearly Custom
  Current: High: Low: Average:
Temperature: 16.9 °F 17.0 °F 13.4 °F 15.4 °F
Dew Point: 15.0 °F 15.1 °F 10.5 °F 13.1 °F
Humidity: 92% 92% 88% 90%
Wind Speed: 5.0mph 9.0mph 0.0mph 2.4mph
Wind Gust: 8.0mph 10.0mph - -
WindNorth - - South
Pressure: 30.17 in 30.18 in 30.12 in -
Precipitation: 0.00 in      
Historical Graphs
 
 
Tabular Data for January 17, 2019
Time Temperature Dew Point Pressure Wind Wind Speed Wind Gust Humidity Rainfall Rate (Hourly) solar Conditions
00:04 13.5 °F 10.9 °F 30.17 in SE 3.0 mph 6.0 mph 89% 0.00 in 0.00 W/m2
00:09 13.5 °F 10.9 °F 30.17 in SE 5.0 mph 6.0 mph 89% 0.00 in 0.00 W/m2
00:14 13.4 °F 10.5 °F 30.17 in SE 4.0 mph 6.0 mph 88% 0.00 in 0.00 W/m2
00:19 13.4 °F 10.5 °F 30.17 in SE 4.0 mph 6.0 mph 88% 0.00 in 0.00 W/m2
00:24 13.4 °F 10.5 °F 30.17 in SE 3.0 mph 6.0 mph 88% 0.00 in 0.00 W/m2
00:29 13.4 °F 10.5 °F 30.17 in SE 4.0 mph 7.0 mph 88% 0.00 in 0.00 W/m2
00:34 13.4 °F 10.5 °F 30.17 in SE 6.0 mph 7.0 mph 88% 0.00 in 0.00 W/m2
00:39 13.5 °F 10.6 °F 30.17 in SE 5.0 mph 7.0 mph 88% 0.00 in 0.00 W/m2
00:44 13.5 °F 10.6 °F 30.17 in SE 4.0 mph 7.0 mph 88% 0.00 in 0.00 W/m2
00:49 13.6 °F 10.7 °F 30.17 in SE 3.0 mph 6.0 mph 88% 0.00 in 0.00 W/m2
00:54 13.6 °F 10.7 °F 30.17 in SE 3.0 mph 6.0 mph 88% 0.00 in 0.00 W/m2
00:59 13.6 °F 10.7 °F 30.17 in SE 2.0 mph 6.0 mph 88% 0.00 in 0.00 W/m2
01:04 13.7 °F 11.1 °F 30.17 in SE 3.0 mph 6.0 mph 89% 0.00 in 0.00 W/m2
01:09 13.7 °F 11.1 °F 30.17 in SE 5.0 mph 6.0 mph 89% 0.00 in 0.00 W/m2
01:14 13.7 °F 10.8 °F 30.17 in SSE 3.0 mph 5.0 mph 88% 0.00 in 0.00 W/m2
01:19 13.8 °F 11.2 °F 30.16 in SE 3.0 mph 5.0 mph 89% 0.00 in 0.00 W/m2
01:24 13.9 °F 11.3 °F 30.16 in SE 4.0 mph 5.0 mph 89% 0.00 in 0.00 W/m2
01:29 14.0 °F 11.4 °F 30.16 in SSE 3.0 mph 5.0 mph 89% 0.00 in 0.00 W/m2
01:34 14.0 °F 11.4 °F 30.16 in SE 1.0 mph 5.0 mph 89% 0.00 in 0.00 W/m2
01:39 14.1 °F 11.5 °F 30.16 in SE 3.0 mph 4.0 mph 89% 0.00 in 0.00 W/m2
01:44 14.1 °F 11.5 °F 30.16 in Calm   4.0 mph 89% 0.00 in 0.00 W/m2
01:49 14.1 °F 11.5 °F 30.16 in Calm   3.0 mph 89% 0.00 in 0.00 W/m2
01:54 14.1 °F 11.5 °F 30.16 in SE 3.0 mph 3.0 mph 89% 0.00 in 0.00 W/m2
01:59 14.2 °F 11.6 °F 30.16 in SE 2.0 mph 3.0 mph 89% 0.00 in 0.00 W/m2
02:04 14.2 °F 11.6 °F 30.15 in SE 2.0 mph 3.0 mph 89% 0.00 in 0.00 W/m2
02:09 14.3 °F 11.7 °F 30.15 in SE 3.0 mph 4.0 mph 89% 0.00 in 0.00 W/m2
02:14 14.4 °F 11.8 °F 30.15 in SSE 3.0 mph 4.0 mph 89% 0.00 in 0.00 W/m2
02:19 14.5 °F 11.9 °F 30.15 in SSE 2.0 mph 4.0 mph 89% 0.00 in 0.00 W/m2
02:24 14.5 °F 11.9 °F 30.15 in SSE 2.0 mph 4.0 mph 89% 0.00 in 0.00 W/m2
02:29 14.6 °F 11.9 °F 30.15 in SE 2.0 mph 4.0 mph 89% 0.00 in 0.00 W/m2
02:34 14.7 °F 12.0 °F 30.15 in SE 2.0 mph 4.0 mph 89% 0.00 in 0.00 W/m2
02:39 14.6 °F 11.9 °F 30.15 in SE 1.0 mph 3.0 mph 89% 0.00 in 0.00 W/m2
02:44 14.6 °F 11.9 °F 30.15 in SE 2.0 mph 3.0 mph 89% 0.00 in 0.00 W/m2
02:49 14.6 °F 11.9 °F 30.15 in SE 1.0 mph 3.0 mph 89% 0.00 in 0.00 W/m2
02:54 14.6 °F 11.9 °F 30.15 in Calm   3.0 mph 89% 0.00 in 0.00 W/m2
02:59 14.7 °F 12.0 °F 30.15 in Calm   2.0 mph 89% 0.00 in 0.00 W/m2
03:04 14.7 °F 12.0 °F 30.15 in Calm     89% 0.00 in 0.00 W/m2
03:09 14.7 °F 12.0 °F 30.15 in Calm     89% 0.00 in 0.00 W/m2
03:14 14.8 °F 12.1 °F 30.15 in Calm     89% 0.00 in 0.00 W/m2
03:19 14.8 °F 12.1 °F 30.14 in SE 1.0 mph 1.0 mph 89% 0.00 in 0.00 W/m2
03:24 14.9 °F 12.2 °F 30.14 in Calm   2.0 mph 89% 0.00 in 0.00 W/m2
03:29 14.9 °F 12.2 °F 30.14 in SE 1.0 mph 2.0 mph 89% 0.00 in 0.00 W/m2
03:34 14.9 °F 12.2 °F 30.15 in Calm   2.0 mph 89% 0.00 in 0.00 W/m2
03:39 14.9 °F 12.2 °F 30.15 in Calm   1.0 mph 89% 0.00 in 0.00 W/m2
03:44 14.9 °F 12.2 °F 30.14 in SE 1.0 mph 1.0 mph 89% 0.00 in 0.00 W/m2
03:49 14.9 °F 12.2 °F 30.15 in Calm   1.0 mph 89% 0.00 in 0.00 W/m2
03:54 15.0 °F 12.3 °F 30.14 in SE 1.0 mph 1.0 mph 89% 0.00 in 0.00 W/m2
03:59 15.0 °F 12.3 °F 30.14 in SE 1.0 mph 2.0 mph 89% 0.00 in 0.00 W/m2
04:04 15.0 °F 12.3 °F 30.14 in SE 2.0 mph 3.0 mph 89% 0.00 in 0.00 W/m2
04:09 15.1 °F 12.4 °F 30.14 in SE 2.0 mph 3.0 mph 89% 0.00 in 0.00 W/m2
04:14 15.1 °F 12.4 °F 30.14 in SE 3.0 mph 3.0 mph 89% 0.00 in 0.00 W/m2
04:19 15.0 °F 12.3 °F 30.14 in ESE 4.0 mph 4.0 mph 89% 0.00 in 0.00 W/m2
04:24 15.1 °F 12.4 °F 30.14 in ESE 2.0 mph 4.0 mph 89% 0.00 in 0.00 W/m2
04:29 15.0 °F 12.3 °F 30.14 in ESE 2.0 mph 4.0 mph 89% 0.00 in 0.00 W/m2
04:34 15.1 °F 12.4 °F 30.13 in ESE 1.0 mph 3.0 mph 89% 0.00 in 0.00 W/m2
04:39 15.0 °F 12.3 °F 30.14 in Calm   3.0 mph 89% 0.00 in 0.00 W/m2
04:44 15.0 °F 12.3 °F 30.14 in Calm   3.0 mph 89% 0.00 in 0.00 W/m2
04:49 15.1 °F 12.4 °F 30.14 in Calm     89% 0.00 in 0.00 W/m2
04:54 15.1 °F 12.4 °F 30.14 in Calm     89% 0.00 in 0.00 W/m2
04:59 15.1 °F 12.4 °F 30.14 in Calm     89% 0.00 in 0.00 W/m2
05:04 15.2 °F 12.5 °F 30.14 in Calm   3.0 mph 89% 0.00 in 0.00 W/m2
05:09 15.2 °F 12.5 °F 30.14 in Calm   3.0 mph 89% 0.00 in 0.00 W/m2
05:14 15.3 °F 12.6 °F 30.14 in Calm     89% 0.00 in 0.00 W/m2
05:19 15.3 °F 12.9 °F 30.13 in Calm   1.0 mph 90% 0.00 in 0.00 W/m2
05:24 15.4 °F 13.0 °F 30.14 in SSW 3.0 mph 4.0 mph 90% 0.00 in 0.00 W/m2
05:29 15.5 °F 13.1 °F 30.13 in SSW 1.0 mph 4.0 mph 90% 0.00 in 0.00 W/m2
05:34 15.6 °F 13.2 °F 30.13 in SSW 1.0 mph 3.0 mph 90% 0.00 in 0.00 W/m2
05:39 15.7 °F 13.5 °F 30.13 in SSW 1.0 mph 3.0 mph 91% 0.00 in 0.00 W/m2
05:44 15.7 °F 13.5 °F 30.13 in SSW 1.0 mph 3.0 mph 91% 0.00 in 0.00 W/m2
05:49 15.8 °F 13.6 °F 30.12 in Calm   3.0 mph 91% 0.00 in 0.00 W/m2
05:54 15.8 °F 13.6 °F 30.12 in SSW 1.0 mph 3.0 mph 91% 0.00 in 0.00 W/m2
05:59 15.8 °F 13.6 °F 30.12 in Calm   3.0 mph 91% 0.00 in 0.00 W/m2
06:04 15.8 °F 13.6 °F 30.12 in SSW 2.0 mph 2.0 mph 91% 0.00 in 0.00 W/m2
06:09 15.9 °F 13.7 °F 30.12 in SSW 1.0 mph 3.0 mph 91% 0.00 in 0.00 W/m2
06:14 15.9 °F 14.0 °F 30.12 in SSW 1.0 mph 3.0 mph 92% 0.00 in 0.00 W/m2
06:19 15.9 °F 14.0 °F 30.13 in Calm   3.0 mph 92% 0.00 in 0.00 W/m2
06:24 15.9 °F 14.0 °F 30.13 in Calm   1.0 mph 92% 0.00 in 0.00 W/m2
06:29 16.0 °F 14.1 °F 30.13 in Calm     92% 0.00 in 0.00 W/m2
06:34 16.0 °F 14.1 °F 30.13 in Calm     92% 0.00 in 0.00 W/m2
06:39 16.1 °F 14.2 °F 30.13 in Calm     92% 0.00 in 0.00 W/m2
06:44 16.1 °F 14.2 °F 30.13 in Calm     92% 0.00 in 0.00 W/m2
06:49 16.1 °F 14.2 °F 30.13 in Calm     92% 0.00 in 0.00 W/m2
06:54 16.1 °F 14.2 °F 30.12 in Calm     92% 0.00 in 0.00 W/m2
06:59 16.2 °F 14.3 °F 30.12 in Calm     92% 0.00 in 0.00 W/m2
07:04 16.2 °F 14.3 °F 30.12 in Calm     92% 0.00 in 0.00 W/m2
07:09 16.2 °F 14.3 °F 30.12 in Calm     92% 0.00 in 0.00 W/m2
07:14 16.2 °F 14.3 °F 30.13 in Calm     92% 0.00 in 0.00 W/m2
07:19 16.1 °F 14.2 °F 30.13 in Calm     92% 0.00 in 0.00 W/m2
07:24 16.1 °F 14.2 °F 30.13 in NW 3.0 mph 4.0 mph 92% 0.00 in 0.00 W/m2
07:29 16.0 °F 14.1 °F 30.13 in NNW 3.0 mph 4.0 mph 92% 0.00 in 0.00 W/m2
07:34 15.9 °F 14.0 °F 30.14 in NNW 3.0 mph 4.0 mph 92% 0.00 in 0.00 W/m2
07:39 15.9 °F 14.0 °F 30.14 in NNW 1.0 mph 4.0 mph 92% 0.00 in 0.00 W/m2
07:44 15.9 °F 14.0 °F 30.14 in North 2.0 mph 5.0 mph 92% 0.00 in 0.00 W/m2
07:49 15.9 °F 14.0 °F 30.14 in North 2.0 mph 5.0 mph 92% 0.00 in 0.00 W/m2
07:54 16.0 °F 14.1 °F 30.14 in North 2.0 mph 4.0 mph 92% 0.00 in 0.00 W/m2
07:59 15.9 °F 14.0 °F 30.14 in North 2.0 mph 4.0 mph 92% 0.00 in 0.00 W/m2
08:04 15.9 °F 14.0 °F 30.15 in North 2.0 mph 4.0 mph 92% 0.00 in 0.00 W/m2
08:09 15.9 °F 14.0 °F 30.15 in North 2.0 mph 4.0 mph 92% 0.00 in 0.00 W/m2
08:14 15.9 °F 14.0 °F 30.15 in North 3.0 mph 4.0 mph 92% 0.00 in 0.00 W/m2
08:19 15.9 °F 14.0 °F 30.15 in North 3.0 mph 4.0 mph 92% 0.00 in 0.00 W/m2
08:24 16.0 °F 14.1 °F 30.15 in North 5.0 mph 5.0 mph 92% 0.00 in 0.00 W/m2
08:29 16.0 °F 14.1 °F 30.15 in North 3.0 mph 5.0 mph 92% 0.00 in 0.00 W/m2
08:34 16.0 °F 14.1 °F 30.15 in NNE 4.0 mph 5.0 mph 92% 0.00 in 5.00 W/m2
08:39 16.1 °F 14.2 °F 30.15 in North 3.0 mph 5.0 mph 92% 0.00 in 7.00 W/m2
08:44 16.1 °F 14.2 °F 30.15 in North 4.0 mph 5.0 mph 92% 0.00 in 9.00 W/m2
08:49 16.2 °F 14.3 °F 30.15 in North 3.0 mph 6.0 mph 92% 0.00 in 12.00 W/m2
08:54 16.2 °F 14.3 °F 30.16 in North 3.0 mph 6.0 mph 92% 0.00 in 14.00 W/m2
08:59 16.2 °F 14.3 °F 30.16 in North 2.0 mph 6.0 mph 92% 0.00 in 12.00 W/m2
09:04 16.3 °F 14.4 °F 30.16 in North 2.0 mph 5.0 mph 92% 0.00 in 12.00 W/m2
09:09 16.3 °F 14.4 °F 30.16 in North 5.0 mph 6.0 mph 92% 0.00 in 16.00 W/m2
09:14 16.2 °F 14.3 °F 30.16 in NNW 4.0 mph 6.0 mph 92% 0.00 in 19.00 W/m2
09:19 16.3 °F 14.4 °F 30.16 in North 4.0 mph 6.0 mph 92% 0.00 in 19.00 W/m2
09:24 16.3 °F 14.4 °F 30.16 in North 3.0 mph 6.0 mph 92% 0.00 in 23.00 W/m2
09:29 16.3 °F 14.4 °F 30.16 in North 5.0 mph 6.0 mph 92% 0.00 in 25.00 W/m2
09:34 16.3 °F 14.4 °F 30.16 in North 5.0 mph 7.0 mph 92% 0.00 in 30.00 W/m2
09:39 16.3 °F 14.4 °F 30.16 in NNE 3.0 mph 7.0 mph 92% 0.00 in 40.00 W/m2
09:44 16.3 °F 14.4 °F 30.16 in NNE 5.0 mph 6.0 mph 92% 0.00 in 51.00 W/m2
09:49 16.4 °F 14.5 °F 30.16 in North 5.0 mph 7.0 mph 92% 0.00 in 77.00 W/m2
09:54 16.5 °F 14.6 °F 30.15 in NNE 6.0 mph 7.0 mph 92% 0.00 in 84.00 W/m2
09:59 16.6 °F 14.7 °F 30.16 in North 6.0 mph 7.0 mph 92% 0.00 in 83.00 W/m2
10:04 16.6 °F 14.7 °F 30.16 in North 7.0 mph 7.0 mph 92% 0.00 in 88.00 W/m2
10:09 16.7 °F 14.8 °F 30.16 in NNE 5.0 mph 7.0 mph 92% 0.00 in 98.00 W/m2
10:14 16.8 °F 14.9 °F 30.16 in NNE 5.0 mph 7.0 mph 92% 0.00 in 95.00 W/m2
10:19 16.8 °F 14.9 °F 30.16 in North 4.0 mph 6.0 mph 92% 0.00 in 100.00 W/m2
10:24 16.9 °F 15.0 °F 30.17 in North 5.0 mph 6.0 mph 92% 0.00 in 98.00 W/m2
10:29 16.9 °F 15.0 °F 30.17 in North 5.0 mph 6.0 mph 92% 0.00 in 104.00 W/m2
10:34 17.0 °F 15.1 °F 30.17 in North 5.0 mph 7.0 mph 92% 0.00 in 107.00 W/m2
10:39 16.9 °F 15.0 °F 30.17 in North 4.0 mph 7.0 mph 92% 0.00 in 113.00 W/m2
10:44 16.9 °F 15.0 °F 30.18 in North 6.0 mph 8.0 mph 92% 0.00 in 118.00 W/m2
10:49 16.9 °F 15.0 °F 30.18 in NNW 9.0 mph 9.0 mph 92% 0.00 in 109.00 W/m2
10:54 16.7 °F 14.8 °F 30.18 in North 7.0 mph 9.0 mph 92% 0.00 in 104.00 W/m2
10:59 16.7 °F 14.8 °F 30.18 in North 6.0 mph 9.0 mph 92% 0.00 in 107.00 W/m2
11:04 16.6 °F 14.7 °F 30.18 in NNW 7.0 mph 10.0 mph 92% 0.00 in 132.00 W/m2
11:09 16.7 °F 14.8 °F 30.17 in North 7.0 mph 10.0 mph 92% 0.00 in 141.00 W/m2
11:14 16.9 °F 15.0 °F 30.17 in North 5.0 mph 8.0 mph 92% 0.00 in 137.00 W/m2
Bismarck, North Dakota, USA
Compliments of Weather Underground - 2 mb